Nashville, TN

8:16 PM CDT on August 22, 2014 (GMT -0500)
Nashville International | Change Station
CLOSE
Current Station
Airport
Location: Nashville,
Elevation: 597 ft
Nearby Weather Stations
Active Advisory: Special Statement

Elev 597 ft 36.12 °N, 86.69 °W | Updated 23 minutes ago

Partly Cloudy
Partly Cloudy
86 °F
Feels Like 92 °F
N
0
Wind Variable Wind from North

Today
High -- | Low -- °F
--% Chance of Precip.
Yesterday
High -- | Low -- °F
Precip. -- in
6:10 AM 7:28 PM
Waning Crescent, 6% visible
Pressure 29.97 in
Visibility 10.0 miles
Clouds Few 25000 ft
Heat Index 92 °F
Dew Point 72 °F
Humidity 63%
Rainfall 0.00 in
Snow Depth Not available.
UV 0 out of 12
Pollen 9.90 out of 12
Ozone Good
PM2.5 Moderate
Flu Activity Not available.
METAR KBNA 230053Z 00000KT 10SM FEW250 30/22 A2999 RMK AO2 SLP148 T03000222

More Conditions Fewer Conditions

Pressure 29.97 in
Visibility 10.0 miles
Clouds Few 25000 ft
Heat Index 92 °F
Dew Point 72 °F
Humidity 63%
Rainfall 0.00 in
Snow Depth Not available.
UV 0 out of 12
Pollen 9.90 out of 12
Ozone Good
PM2.5 Moderate
Flu Activity Not available.
METAR KBNA 230053Z 00000KT 10SM FEW250 30/22 A2999 RMK AO2 SLP148 T03000222

More Conditions Fewer Conditions

10-Day Weather Forecast

Almanac

Astronomy

Aug. 22, 2014 Rise Set
Actual Time 6:10 AM CDT 7:28 PM CDT
Civil Twilight 5:43 AM CDT 7:54 PM CDT
Nautical Twilight 5:11 AM CDT 8:26 PM CDT
Astronomical Twilight 4:38 AM CDT 8:59 PM CDT
Moon 3:35 AM CDT (8/22) 5:34 PM CDT (8/22)
Length of Visible Light 14h 11m
Length of Day
13h 17m
Tomorrow will be 2m 7s shorter.
Waning Crescent, 6% of the Moon is Illuminated
Today
Waning Crescent
Aug 25
New
Sep 2
First Quarter
Sep 8
Full
Sep 15
Last Quarter

Today's Extremes

State Highs State Lows

Community

WunderPhotos

Upload Photos

1,746,337 photos uploaded!

WunderBlogs® & News

Nearby

Air Quality

  Air Quality AQ Index Pollutant
Yesterday Moderate
PM2.5
Yesterday Good
OZONE
Current Moderate
PM2.5
Current Good
OZONE
Friday Moderate
PM2.5
Friday Moderate
OZONE
Saturday Moderate
PM2.5
Saturday Good
OZONE
Sunday Moderate
PM2.5
Sunday Good
OZONE

Snow Depth

Station Depth Elevation
No new snow has been reported.

Earthquake Activity

City Distance Mag. Time & Date
No recent earthquake activity has been reported nearby.
Minimum magnitude displayed is 2.5.

Coastal Water Temperatures

Place Temperature
No Stations Reporting

Nearby Weather Stations